Latest Weather Observations for Hartz Mountains

IDT60801

Issued at 11:31 pm EDT Monday 26 January 2015 (issued every 30 minutes, with the page automatically refreshed every 10 minutes)

About weather observations | Map of weather stations | Latest weather observations for TAS | Other Formats
Station Details ID: 094191 Name: HARTZ MOUNTAIN (KEOGHS PIMPLE) Lat: -43.20 Lon: 146.77 Height: 831.0 m
Data from the previous 72 hours. | See also: Recent months at Hartz Mountains
Date/Time
EDT
Temp
°C
App
Temp
°C
Dew
Point
Rel
Hum
%
Delta-T
°C
Wind Press
QNH
hPa
Press
MSL
hPa
Rain
since 9 am
mm
Dir
 
Spd
km/h
Gust
km/h
Spd
kts
Gust
kts
26/11:30pm 4.8 0.5 3.5 91 0.6 W 15 26 8 14 - - 0.4
26/11:00pm 5.0 1.2 3.8 92 0.5 WNW 13 20 7 11 - - 0.4
26/10:30pm 4.9 -0.7 3.6 91 0.6 W 22 35 12 19 - - 0.4
26/10:00pm 4.8 0.6 3.6 92 0.5 WNW 15 24 8 13 - - 0.4
26/09:30pm 5.0 -0.2 3.5 90 0.7 WNW 20 30 11 16 - - 0.4
26/09:00pm 5.4 -0.9 3.6 88 0.8 W 26 35 14 19 - - 0.4
26/08:30pm 5.9 0.3 3.7 86 1.0 WNW 22 39 12 21 - - 0.4
26/08:00pm 6.2 0.6 3.4 82 1.2 WNW 22 43 12 23 - - 0.4
26/07:30pm 6.4 -0.4 3.2 80 1.4 W 28 48 15 26 - - 0.4
26/07:15pm 6.6 -0.1 3.4 80 1.4 W 28 50 15 27 - - 0.4
26/07:00pm 6.9 1.4 4.0 82 1.3 W 22 41 12 22 - - 0.4
26/06:31pm 7.0 0.3 3.4 78 1.6 W 28 48 15 26 - - 0.4
26/06:30pm 7.1 0.4 3.7 79 1.5 W 28 43 15 23 - - 0.4
26/06:00pm 7.6 -0.7 4.2 79 1.6 W 37 56 20 30 - - 0.4
26/05:30pm 8.1 1.1 4.1 76 1.8 W 30 50 16 27 - - 0.4
26/05:23pm 8.3 2.2 4.9 79 1.6 W 26 46 14 25 - - 0.4
26/05:18pm 8.5 1.4 5.3 80 1.5 W 32 54 17 29 - - 0.4
26/05:02pm 8.8 -1.4 5.0 77 1.8 WSW 48 65 26 35 - - 0.4
26/05:00pm 8.9 -1.3 5.1 77 1.8 WSW 48 65 26 35 - - 0.4
26/04:30pm 9.5 1.6 4.5 71 2.3 W 35 56 19 30 - - 0.4
26/04:00pm 9.4 1.0 3.8 68 2.6 W 37 61 20 33 - - 0.4
26/03:30pm 7.6 0.5 5.4 86 1.0 W 32 56 17 30 - - 0.4
26/03:00pm 7.5 -0.2 5.3 86 1.0 WNW 35 56 19 30 - - 0.4
26/02:36pm 9.1 2.4 5.8 80 1.6 W 30 57 16 31 - - 0.4
26/02:30pm 7.9 2.1 6.2 89 0.8 W 26 44 14 24 - - 0.4
26/02:00pm 6.9 -0.6 3.7 80 1.4 WNW 32 54 17 29 - - 0.4
26/01:45pm 7.2 0.7 4.5 83 1.2 W 28 48 15 26 - - 0.4
26/01:30pm 7.0 1.9 4.1 82 1.3 W 20 37 11 20 - - 0.4
26/01:00pm 7.3 0.4 4.8 84 1.2 W 30 54 16 29 - - 0.4
26/12:36pm 6.2 -0.7 4.7 90 0.7 WNW 30 48 16 26 - - 0.4
26/12:30pm 5.9 -0.3 4.4 90 0.7 W 26 46 14 25 - - 0.4
26/12:00pm 5.9 1.4 4.1 88 0.8 W 17 35 9 19 - - 0.4
26/11:30am 5.8 -0.4 4.3 90 0.7 W 26 54 14 29 - - 0.4
26/11:02am 6.8 1.1 4.8 87 0.9 WNW 24 52 13 28 - - 0.4
26/11:00am 6.9 1.7 5.5 91 0.7 WNW 22 44 12 24 - - 0.2
26/10:30am 5.2 -1.9 3.5 89 0.7 W 30 54 16 29 - - 0.2
26/10:00am 5.4 -1.9 4.5 94 0.4 W 32 54 17 29 - - 0.2
26/09:30am 4.7 -1.9 4.3 97 0.2 WSW 28 54 15 29 - - 0.2
26/09:00am 3.9 -2.8 3.5 97 0.2 WNW 28 48 15 26 - - 10.8
26/08:54am 4.1 -2.2 3.7 97 0.2 W 26 48 14 26 - - 10.8
26/08:30am 4.5 -0.6 4.1 97 0.2 W 20 33 11 18 - - 10.6
26/08:00am 3.7 -1.3 3.4 98 0.1 W 19 33 10 18 - - 10.4
26/07:30am 3.2 -2.9 2.9 98 0.1 W 24 37 13 20 - - 10.4
26/07:00am 3.1 -3.7 3.0 99 0.0 W 28 52 15 28 - - 9.8
26/06:52am 3.1 -3.7 3.0 99 0.0 W 28 52 15 28 - - 9.8
26/06:30am 3.1 -3.0 3.0 99 0.0 W 24 37 13 20 - - 8.6
26/06:00am 2.9 -4.3 2.8 99 0.0 W 30 50 16 27 - - 8.6
26/05:47am 2.9 -5.3 2.8 99 0.0 WSW 35 54 19 29 - - 8.6
26/05:30am 3.1 -5.4 3.0 99 0.0 WSW 37 48 20 26 - - 8.4
26/05:01am 3.0 -4.8 2.9 99 0.0 WSW 33 52 18 28 - - 8.4
26/05:00am 3.0 -5.2 2.9 99 0.0 WSW 35 52 19 28 - - 8.4
26/04:30am 3.2 -4.0 3.1 99 0.0 W 30 50 16 27 - - 8.4
26/04:00am 3.2 -3.6 3.1 99 0.0 WSW 28 50 15 27 - - 8.2
26/03:30am 3.2 -4.0 3.1 99 0.0 W 30 59 16 32 - - 8.2
26/03:00am 3.1 -4.5 2.8 98 0.1 WSW 32 54 17 29 - - 8.0
26/02:30am 3.1 -4.1 3.0 99 0.0 W 30 52 16 28 - - 7.4
26/02:00am 3.1 -5.0 3.0 99 0.0 WNW 35 61 19 33 - - 7.4
26/01:51am 3.0 -3.1 2.9 99 0.0 W 24 50 13 27 - - 7.4
26/01:30am 3.0 -2.7 2.9 99 0.0 W 22 44 12 24 - - 7.4
26/01:00am 2.8 -2.6 2.7 99 0.0 WNW 20 32 11 17 - - 7.2
26/12:34am 2.5 -4.5 2.2 98 0.1 W 28 54 15 29 - - 6.4
26/12:30am 2.8 -3.7 2.7 99 0.0 W 26 41 14 22 - - 6.4
26/12:00am 2.5 -3.3 2.4 99 0.0 WNW 22 39 12 21 - - 6.4
 
Date/Time
EDT
Temp
°C
App
Temp
°C
Dew
Point
Rel
Hum
%
Delta-T
°C
Wind Press
QNH
hPa
Press
MSL
hPa
Rain
since 9 am
mm
Dir
 
Spd
km/h
Gust
km/h
Spd
kts
Gust
kts
25/11:30pm 2.6 -5.1 2.5 99 0.0 WNW 32 57 17 31 - - 6.0
25/11:03pm 2.7 -6.3 2.6 99 0.0 WNW 39 57 21 31 - - 6.0
25/11:00pm 2.7 -5.9 2.6 99 0.0 WNW 37 54 20 29 - - 6.0
25/10:30pm 2.4 -6.7 2.1 98 0.1 WNW 39 57 21 31 - - 5.8
25/10:16pm 2.7 -4.2 2.3 97 0.2 W 28 46 15 25 - - 5.0
25/10:00pm 2.9 -4.0 2.6 98 0.1 W 28 41 15 22 - - 4.6
25/09:30pm 3.0 -3.5 2.7 98 0.1 W 26 39 14 21 - - 4.4
25/09:00pm 2.6 -5.7 2.3 98 0.1 W 35 54 19 29 - - 4.2
25/08:33pm 2.9 -5.0 2.5 97 0.2 WNW 33 54 18 29 - - 3.8
25/08:30pm 2.9 -5.0 2.5 97 0.2 WNW 33 48 18 26 - - 3.8
25/08:00pm 2.7 -6.3 2.3 97 0.2 W 39 65 21 35 - - 3.6
25/07:31pm 3.4 -4.4 3.0 97 0.2 W 33 52 18 28 - - 3.4
25/07:30pm 3.4 -4.7 3.0 97 0.2 W 35 52 19 28 - - 3.4
25/07:02pm 3.5 -3.7 3.1 97 0.2 W 30 50 16 27 - - 3.2
25/07:00pm 3.6 -3.6 3.2 97 0.2 W 30 46 16 25 - - 3.2
25/06:30pm 3.2 -5.7 2.8 97 0.2 WSW 39 57 21 31 - - 3.0
25/06:00pm 4.0 -4.1 3.3 95 0.3 W 35 57 19 31 - - 2.2
25/05:32pm 5.1 -1.4 4.5 96 0.3 W 28 46 15 25 - - 2.0
25/05:30pm 5.1 -1.0 4.7 97 0.2 W 26 46 14 25 - - 2.0
25/05:00pm 3.7 -3.8 3.4 98 0.1 W 32 50 17 27 - - 2.0
25/04:52pm 3.8 -2.9 3.5 98 0.1 W 28 46 15 25 - - 2.0
25/04:41pm 3.8 -3.9 3.4 97 0.2 W 33 48 18 26 - - 1.8
25/04:30pm 3.4 -6.5 2.7 95 0.3 WSW 44 69 24 37 - - 1.8
25/04:00pm 5.6 -3.5 4.1 90 0.7 W 41 61 22 33 - - 1.2
25/03:30pm 5.4 -1.9 4.4 93 0.4 W 32 54 17 29 - - 1.2
25/03:21pm 5.2 -2.3 4.3 94 0.4 W 33 54 18 29 - - 1.2
25/03:00pm 4.3 -4.1 3.6 95 0.3 WNW 37 52 20 28 - - 1.2
25/02:30pm 5.3 -3.5 3.6 89 0.7 W 39 61 21 33 - - 1.2
25/02:06pm 5.6 -3.9 4.1 90 0.7 W 43 61 23 33 - - 1.2
25/02:00pm 5.6 -4.1 3.8 88 0.8 W 44 61 24 33 - - 1.2
25/01:30pm 5.4 -3.2 4.5 94 0.4 W 39 59 21 32 - - 1.2
25/01:25pm 5.6 -2.2 4.9 95 0.3 W 35 59 19 32 - - 1.2
25/01:00pm 5.6 -2.7 4.2 91 0.6 WSW 37 52 20 28 - - 1.0
25/12:30pm 7.2 -0.3 6.3 94 0.4 W 35 52 19 28 - - 0.8
25/12:16pm 5.9 -1.6 4.4 90 0.7 W 33 54 18 29 - - 0.8
25/12:12pm 6.3 -1.6 4.1 86 1.0 WNW 35 54 19 29 - - 0.4
25/12:00pm 8.7 0.8 4.5 75 1.9 WNW 35 50 19 27 - - 0.4
25/11:32am 7.7 1.2 6.3 91 0.7 W 30 48 16 26 - - 0.4
25/11:30am 7.0 0.5 4.8 86 1.0 W 28 39 15 21 - - 0.4
25/11:02am 6.3 -1.0 4.3 87 0.9 WSW 32 50 17 27 - - 0.4
25/11:00am 6.3 -1.4 3.6 83 1.2 WSW 33 50 18 27 - - 0.4
25/10:30am 7.5 2.6 6.8 95 0.3 W 22 35 12 19 - - 0.4
25/10:01am 5.2 -1.7 4.5 95 0.3 W 30 48 16 26 - - 0.4
25/10:00am 5.0 -2.3 4.3 95 0.3 W 32 48 17 26 - - 0.4
25/09:56am 5.3 -1.2 4.6 95 0.3 W 28 48 15 26 - - 0.4
25/09:30am 6.1 0.9 5.4 95 0.3 W 22 35 12 19 - - 0.0
25/09:00am 5.4 0.4 4.8 96 0.3 W 20 33 11 18 - - 0.6
25/08:30am 5.3 -0.5 4.4 94 0.4 W 24 39 13 21 - - 0.4
25/08:00am 5.1 -1.5 4.2 94 0.4 W 28 41 15 22 - - 0.4
25/07:30am 5.3 -0.8 4.7 96 0.3 W 26 44 14 24 - - 0.4
25/07:00am 5.3 -2.9 4.7 96 0.3 W 37 48 20 26 - - 0.4
25/06:30am 5.5 -3.0 5.1 97 0.2 WSW 39 54 21 29 - - 0.4
25/06:00am 6.0 -0.3 5.6 97 0.2 WSW 28 48 15 26 - - 0.4
25/05:37am 6.2 -1.8 5.8 97 0.2 WSW 37 56 20 30 - - 0.4
25/05:30am 6.6 -0.4 6.2 97 0.2 W 32 43 17 23 - - 0.4
25/05:00am 6.8 -0.7 6.4 97 0.2 WSW 35 46 19 25 - - 0.2
25/04:30am 7.3 -0.5 6.7 96 0.3 WSW 37 50 20 27 - - 0.2
25/04:00am 8.1 3.0 7.7 97 0.2 W 24 39 13 21 - - 0.0
25/03:30am 8.3 2.8 7.7 96 0.3 W 26 54 14 29 - - 0.0
25/03:00am 8.7 1.9 7.8 94 0.4 W 33 54 18 29 - - 0.0
25/02:50am 8.9 2.1 7.7 92 0.6 W 33 52 18 28 - - 0.0
25/02:30am 10.2 3.7 6.7 79 1.7 WNW 30 46 16 25 - - 0.0
25/02:26am 10.2 4.1 6.7 79 1.7 WNW 28 46 15 25 - - 0.0
25/02:00am 9.6 4.6 6.3 80 1.6 NW 22 35 12 19 - - 0.0
25/01:30am 9.6 4.2 6.3 80 1.6 NW 24 41 13 22 - - 0.0
25/01:00am 9.9 6.7 7.0 82 1.4 WNW 13 17 7 9 - - 0.0
25/12:30am 10.3 6.4 7.2 81 1.5 WNW 17 22 9 12 - - 0.0
25/12:00am 10.5 6.6 7.2 80 1.6 WNW 17 32 9 17 - - 0.0
 
Date/Time
EDT
Temp
°C
App
Temp
°C
Dew
Point
Rel
Hum
%
Delta-T
°C
Wind Press
QNH
hPa
Press
MSL
hPa
Rain
since 9 am
mm
Dir
 
Spd
km/h
Gust
km/h
Spd
kts
Gust
kts
24/11:30pm 10.7 6.8 7.2 79 1.8 NW 17 26 9 14 - - 0.0
24/11:00pm 11.3 7.1 7.4 77 2.0 NW 19 28 10 15 - - 0.0
24/10:30pm 11.1 6.3 7.2 77 2.0 NW 22 30 12 16 - - 0.0
24/10:00pm 11.2 4.4 7.1 76 2.1 NW 32 41 17 22 - - 0.0
24/09:30pm 11.8 4.5 7.3 74 2.3 WNW 35 54 19 29 - - 0.0
24/09:25pm 11.3 5.3 7.0 75 2.2 WNW 28 50 15 27 - - 0.0
24/09:00pm 11.6 5.2 7.1 74 2.3 WNW 30 41 16 22 - - 0.0
24/08:30pm 12.2 6.2 7.1 71 2.6 W 28 37 15 20 - - 0.0
24/08:00pm 13.6 7.4 7.8 68 3.0 W 30 39 16 21 - - 0.0
24/07:30pm 14.9 9.8 7.7 62 3.7 W 24 37 13 20 - - 0.0
24/07:00pm 16.6 11.7 8.3 58 4.4 W 24 35 13 19 - - 0.0
24/06:30pm 18.2 14.5 10.1 59 4.5 W 20 33 11 18 - - 0.0
24/06:00pm 18.4 13.3 7.8 50 5.6 W 24 32 13 17 - - 0.0
24/05:30pm 18.7 13.7 6.5 45 6.3 WNW 22 35 12 19 - - 0.0
24/05:00pm 18.3 12.6 6.5 46 6.1 W 26 39 14 21 - - 0.0
24/04:30pm 18.3 12.3 7.1 48 5.9 W 28 39 15 21 - - 0.0
24/04:00pm 18.3 13.1 7.4 49 5.8 W 24 35 13 19 - - 0.0
24/03:30pm 19.0 14.1 6.8 45 6.4 W 22 35 12 19 - - 0.0
24/03:00pm 18.6 14.0 8.3 51 5.5 WNW 22 33 12 18 - - 0.0
24/02:30pm 18.1 13.1 6.3 46 6.1 NW 22 39 12 21 - - 0.0
24/02:00pm 17.2 11.6 5.2 45 6.0 WNW 24 37 13 20 - - 0.0
24/01:30pm 16.5 11.4 6.1 50 5.3 WNW 22 35 12 19 - - 0.0
24/01:00pm 15.7 11.1 6.4 54 4.7 NW 20 32 11 17 - - 0.0
24/12:30pm 15.3 11.4 7.3 59 4.1 WNW 17 30 9 16 - - 0.0
24/12:00pm 13.8 9.1 6.2 60 3.8 WNW 20 32 11 17 - - 0.0
24/11:30am 12.5 8.2 6.8 68 2.9 WNW 19 30 10 16 - - 0.0
24/11:00am 13.5 8.7 7.5 67 3.1 NW 22 32 12 17 - - 0.0
24/10:30am 12.9 9.5 7.8 71 2.6 NNW 15 24 8 13 - - 0.0
24/10:00am 10.8 7.6 8.4 85 1.2 NNW 15 24 8 13 - - 0.0
24/09:30am 9.8 6.0 7.7 87 1.1 NW 17 30 9 16 - - 0.0
24/09:00am 9.4 5.4 8.3 93 0.6 N 19 28 10 15 - - 0.2
24/08:30am 8.7 5.8 8.3 97 0.2 NNE 13 20 7 11 - - 0.2
24/08:00am 7.9 4.9 7.5 97 0.2 N 13 22 7 12 - - 0.2
24/07:30am 7.8 4.0 7.4 97 0.2 N 17 28 9 15 - - 0.2
24/07:00am 7.4 3.5 7.0 97 0.2 NNE 17 24 9 13 - - 0.2
24/06:30am 7.1 4.2 6.7 97 0.2 NNE 11 19 6 10 - - 0.2
24/06:00am 6.7 4.1 6.1 96 0.3 NNE 9 15 5 8 - - 0.2
24/05:30am 6.3 3.4 4.9 91 0.6 NNE 9 15 5 8 - - 0.2
24/05:00am 6.3 3.0 4.6 89 0.8 NNE 11 15 6 8 - - 0.2
24/04:30am 6.5 3.1 4.2 85 1.0 NNE 11 15 6 8 - - 0.2
24/04:00am 6.5 2.7 3.8 83 1.2 NNE 13 20 7 11 - - 0.2
24/03:30am 6.6 2.6 2.9 77 1.6 N 13 17 7 9 - - 0.2
24/03:00am 6.4 1.9 2.3 75 1.8 N 15 20 8 11 - - 0.2
24/02:30am 5.7 1.2 2.4 79 1.4 NW 15 19 8 10 - - 0.2
24/02:00am 5.5 0.4 3.3 86 1.0 NW 19 24 10 13 - - 0.2
24/01:30am 5.1 0.9 3.8 91 0.6 NW 15 20 8 11 - - 0.2
24/01:00am 5.1 0.0 3.3 88 0.8 WNW 19 26 10 14 - - 0.2
24/12:30am 5.1 -0.1 3.3 88 0.8 WNW 20 28 11 15 - - 0.2
24/12:00am 5.9 -1.3 3.1 82 1.2 WNW 30 37 16 20 - - 0.2

Other Formats:

Comma delimited format used in spreadsheet applications
http://www.bom.gov.au/fwo/IDT60801/IDT60801.94977.axf

JavaScript Object Notation format (JSON) in row-major order
http://www.bom.gov.au/fwo/IDT60801/IDT60801.94977.json